Time;durP1;ratioP1;P1;durP2;ratioP2;P2;SDS_P1;SDS_P2;PMS_P1;PMS_P2;Temp;Humidity;BMP_temperature;BMP_pressure;BME280_temperature;BME280_humidity;BME280_pressure;Samples;Min_cycle;Max_cycle;Signal;HPM_P1;HPM_P2
2023/05/07 00:01:53;;;;;;;25.70;20.88;;;12.80;99.90;;;;;;5026682;28;20029;-94
2023/05/07 00:04:19;;;;;;;25.50;19.85;;;12.80;99.90;;;;;;5030626;28;20124;-94
2023/05/07 00:06:44;;;;;;;27.45;19.30;;;12.80;99.90;;;;;;5043165;28;20460;-95
2023/05/07 00:09:13;;;;;;;26.55;19.67;;;12.80;99.90;;;;;;5060717;28;20068;-95
2023/05/07 00:11:41;;;;;;;29.80;20.90;;;12.80;99.90;;;;;;5031521;28;20074;-95
2023/05/07 00:14:07;;;;;;;29.08;20.77;;;12.80;99.90;;;;;;5030951;28;20490;-95
2023/05/07 00:16:33;;;;;;;28.17;20.85;;;12.70;99.90;;;;;;5044897;28;20041;-94
2023/05/07 00:18:58;;;;;;;28.70;21.33;;;12.70;99.90;;;;;;5033125;28;20395;-94
2023/05/07 00:21:27;;;;;;;26.40;21.27;;;12.70;99.90;;;;;;5040790;28;20051;-95
2023/05/07 00:23:53;;;;;;;27.08;21.30;;;12.70;99.90;;;;;;5062815;28;20071;-95
2023/05/07 00:26:19;;;;;;;28.95;22.02;;;12.70;99.90;;;;;;5041961;28;20036;-95
2023/05/07 00:28:45;;;;;;;27.15;21.15;;;12.60;99.90;;;;;;5045005;28;20046;-95
2023/05/07 00:31:11;;;;;;;31.35;22.27;;;12.60;99.90;;;;;;5043976;28;20045;-95
2023/05/07 00:33:38;;;;;;;29.85;21.52;;;12.60;99.90;;;;;;5020860;28;20473;-86
2023/05/07 00:36:06;;;;;;;33.67;23.92;;;12.50;99.90;;;;;;5019364;28;20068;-87
2023/05/07 00:38:33;;;;;;;32.47;23.08;;;12.50;99.90;;;;;;5020897;28;20064;-86
2023/05/07 00:40:59;;;;;;;28.92;21.85;;;12.50;99.90;;;;;;5024651;28;20049;-86
2023/05/07 00:43:24;;;;;;;30.73;21.80;;;12.50;99.90;;;;;;5021346;28;20425;-86
2023/05/07 00:45:50;;;;;;;28.98;21.80;;;12.50;99.90;;;;;;5022202;28;20067;-86
2023/05/07 00:48:16;;;;;;;28.45;22.83;;;12.50;99.90;;;;;;5047128;28;20038;-86
2023/05/07 00:50:42;;;;;;;35.75;22.73;;;12.40;99.90;;;;;;5017138;28;20043;-86
2023/05/07 00:53:11;;;;;;;25.60;21.33;;;12.40;99.90;;;;;;5025090;28;20114;-87
2023/05/07 00:55:38;;;;;;;27.23;22.25;;;12.40;99.90;;;;;;5023685;28;20037;-86
2023/05/07 00:58:04;;;;;;;31.33;21.85;;;12.40;99.90;;;;;;5023148;28;20368;-86
2023/05/07 01:00:30;;;;;;;33.40;23.30;;;12.30;99.90;;;;;;5042216;28;20048;-87
2023/05/07 01:02:56;;;;;;;29.52;23.10;;;12.30;99.90;;;;;;5022052;28;20528;-87
2023/05/07 01:05:27;;;;;;;29.77;23.02;;;12.30;99.90;;;;;;5024000;28;20036;-88
2023/05/07 01:07:54;;;;;;;29.67;23.15;;;12.30;99.90;;;;;;5043469;28;20036;-87
2023/05/07 01:10:20;;;;;;;32.35;23.98;;;12.30;99.90;;;;;;5026112;28;20048;-88
2023/05/07 01:12:47;;;;;;;31.13;23.33;;;12.20;99.90;;;;;;5042266;28;20063;-87
2023/05/07 01:15:13;;;;;;;32.20;23.35;;;12.20;99.90;;;;;;5028940;28;20379;-86
2023/05/07 01:17:41;;;;;;;29.52;22.77;;;12.20;99.90;;;;;;5022176;28;20480;-87
2023/05/07 01:20:10;;;;;;;30.30;24.30;;;12.20;99.90;;;;;;5017295;28;20121;-86
2023/05/07 01:22:40;;;;;;;30.35;23.10;;;12.20;99.90;;;;;;5026632;28;20047;-86
2023/05/07 01:25:07;;;;;;;28.73;23.73;;;12.20;99.90;;;;;;5022615;28;20477;-86
2023/05/07 01:27:35;;;;;;;32.53;23.85;;;12.10;99.90;;;;;;5027343;28;20065;-86
2023/05/07 01:30:01;;;;;;;30.25;23.23;;;12.10;99.90;;;;;;5022143;28;20099;-86
2023/05/07 01:33:02;;;;;;;34.63;24.92;;;12.10;99.90;;;;;;5031232;28;20041;-86
2023/05/07 01:35:32;;;;;;;34.38;25.33;;;12.10;99.90;;;;;;5024133;28;20037;-86
2023/05/07 01:37:58;;;;;;;33.67;24.73;;;12.00;99.90;;;;;;5036305;28;20072;-86
2023/05/07 01:40:25;;;;;;;33.17;24.52;;;12.00;99.90;;;;;;5042239;28;20448;-86
2023/05/07 01:42:55;;;;;;;32.88;25.25;;;12.00;99.90;;;;;;5021144;28;20250;-86
2023/05/07 01:45:20;;;;;;;32.70;25.25;;;11.90;99.90;;;;;;5026930;28;20122;-86
2023/05/07 01:47:46;;;;;;;38.22;27.05;;;12.00;99.90;;;;;;5027134;28;20041;-85
2023/05/07 01:50:18;;;;;;;35.17;25.70;;;11.90;99.90;;;;;;5027233;28;20059;-86
2023/05/07 01:52:43;;;;;;;34.47;26.08;;;11.90;99.90;;;;;;5028151;28;20040;-86
2023/05/07 01:55:12;;;;;;;34.85;26.23;;;11.90;99.90;;;;;;5026740;28;20647;-86
2023/05/07 01:57:38;;;;;;;39.45;28.00;;;11.90;99.90;;;;;;5028714;28;20132;-86
2023/05/07 02:00:08;;;;;;;35.00;26.33;;;11.80;99.90;;;;;;5026765;28;20045;-86
2023/05/07 02:02:34;;;;;;;35.63;26.65;;;11.80;99.90;;;;;;5017567;28;20044;-87
2023/05/07 02:05:00;;;;;;;38.65;27.67;;;11.80;99.90;;;;;;5022736;28;20033;-87
2023/05/07 02:07:26;;;;;;;36.20;27.38;;;11.80;99.90;;;;;;5049082;28;20039;-86
2023/05/07 02:09:52;;;;;;;37.15;28.00;;;11.70;99.90;;;;;;5029025;28;20038;-87
2023/05/07 02:12:17;;;;;;;38.80;27.42;;;11.70;99.90;;;;;;5028858;28;20098;-86
2023/05/07 02:14:43;;;;;;;38.55;27.23;;;11.70;99.90;;;;;;5027654;28;20067;-87
2023/05/07 02:17:09;;;;;;;37.85;27.08;;;11.70;99.90;;;;;;5041114;28;20124;-87
2023/05/07 02:19:35;;;;;;;38.50;28.35;;;11.70;99.90;;;;;;5031094;28;20091;-86
2023/05/07 02:22:00;;;;;;;37.90;28.33;;;11.70;99.90;;;;;;5028077;28;20037;-87
2023/05/07 02:24:26;;;;;;;36.03;28.67;;;11.60;99.90;;;;;;5028799;28;20103;-86
2023/05/07 02:26:52;;;;;;;40.83;28.48;;;11.60;99.90;;;;;;5029665;28;20044;-87
2023/05/07 02:29:17;;;;;;;42.80;29.25;;;11.60;99.90;;;;;;5029250;28;20048;-87
2023/05/07 02:31:43;;;;;;;40.15;28.73;;;11.60;99.90;;;;;;5028119;28;20195;-87
2023/05/07 02:34:08;;;;;;;40.33;29.17;;;11.60;99.90;;;;;;5024255;28;20120;-87
2023/05/07 02:36:34;;;;;;;42.63;28.90;;;11.60;99.90;;;;;;5027394;28;20298;-87
2023/05/07 02:39:02;;;;;;;44.63;30.67;;;11.60;99.90;;;;;;5028115;28;20056;-87
2023/05/07 02:41:28;;;;;;;44.25;29.88;;;11.60;99.90;;;;;;5028330;28;20896;-85
2023/05/07 02:44:00;;;;;;;46.58;29.65;;;11.70;99.90;;;;;;5022415;28;20037;-87
2023/05/07 02:46:25;;;;;;;41.08;29.05;;;11.60;99.90;;;;;;5030522;28;20047;-87
2023/05/07 02:48:51;;;;;;;40.00;29.58;;;11.60;99.90;;;;;;5024414;28;20423;-87
2023/05/07 02:51:20;;;;;;;41.78;28.70;;;11.60;99.90;;;;;;5026809;28;20033;-88
2023/05/07 02:53:45;;;;;;;45.25;29.77;;;11.60;99.90;;;;;;5026803;28;20036;-87
2023/05/07 02:56:14;;;;;;;45.65;30.02;;;11.60;99.90;;;;;;5026887;28;20453;-87
2023/05/07 02:58:41;;;;;;;43.85;30.35;;;11.60;99.90;;;;;;5055778;28;20048;-86
2023/05/07 03:01:07;;;;;;;50.45;32.42;;;11.60;99.90;;;;;;5044978;28;20040;-87
2023/05/07 03:03:37;;;;;;;49.67;32.15;;;11.50;99.90;;;;;;5022615;28;20040;-88
2023/05/07 03:06:02;;;;;;;46.42;29.65;;;11.60;99.90;;;;;;5025311;28;20062;-87
2023/05/07 03:08:28;;;;;;;43.20;29.92;;;11.60;99.90;;;;;;5024195;28;20429;-88
2023/05/07 03:10:54;;;;;;;45.08;30.67;;;11.50;99.90;;;;;;5023878;28;20093;-87
2023/05/07 03:13:20;;;;;;;44.72;30.80;;;11.50;99.90;;;;;;5026540;28;20380;-88
2023/05/07 03:15:45;;;;;;;47.28;29.00;;;11.60;99.90;;;;;;5040016;28;20037;-87
2023/05/07 03:18:11;;;;;;;48.53;30.92;;;11.50;99.90;;;;;;5024749;28;20056;-87
2023/05/07 03:20:37;;;;;;;49.80;31.35;;;11.50;99.90;;;;;;5021552;28;20376;-88
2023/05/07 03:23:02;;;;;;;42.85;28.70;;;11.50;99.90;;;;;;5022842;28;20129;-87
2023/05/07 03:25:29;;;;;;;55.92;34.08;;;11.50;99.90;;;;;;5025678;28;20045;-88
2023/05/07 03:27:56;;;;;;;55.08;33.17;;;11.50;99.90;;;;;;5016187;28;20041;-87
2023/05/07 03:30:21;;;;;;;51.20;31.85;;;11.50;99.90;;;;;;5027275;28;20037;-87
2023/05/07 03:32:47;;;;;;;50.92;32.28;;;11.50;99.90;;;;;;5014542;28;20074;-87
2023/05/07 03:35:14;;;;;;;48.72;32.15;;;11.50;99.90;;;;;;5006758;28;20498;-87
2023/05/07 03:37:43;;;;;;;51.80;32.85;;;11.50;99.90;;;;;;5024852;28;20443;-88
2023/05/07 03:40:10;;;;;;;50.28;32.47;;;11.50;99.90;;;;;;5021155;28;20045;-87
2023/05/07 03:42:38;;;;;;;52.65;32.85;;;11.40;99.90;;;;;;5038108;28;20412;-88
2023/05/07 03:45:04;;;;;;;49.63;31.25;;;11.40;99.90;;;;;;5022622;28;20131;-88
2023/05/07 03:47:30;;;;;;;47.50;31.67;;;11.50;99.90;;;;;;5027984;28;20128;-88
2023/05/07 03:49:55;;;;;;;48.88;32.28;;;11.50;99.90;;;;;;5023058;28;20036;-87
2023/05/07 03:52:25;;;;;;;49.78;33.05;;;11.40;99.90;;;;;;5044341;28;20394;-87
2023/05/07 03:54:53;;;;;;;48.03;32.05;;;11.40;99.90;;;;;;5024497;28;20037;-87
2023/05/07 03:57:19;;;;;;;47.63;32.28;;;11.40;99.90;;;;;;5027696;28;20033;-88
2023/05/07 03:59:45;;;;;;;44.63;29.83;;;11.30;99.90;;;;;;5025562;28;20052;-88
2023/05/07 04:02:11;;;;;;;46.33;29.98;;;11.40;99.90;;;;;;5023706;28;20045;-88
2023/05/07 04:04:39;;;;;;;48.08;31.85;;;11.40;99.90;;;;;;5024777;28;20032;-88
2023/05/07 04:07:05;;;;;;;49.67;31.83;;;11.40;99.90;;;;;;5025584;28;20040;-88
2023/05/07 04:09:31;;;;;;;50.38;31.92;;;11.40;99.90;;;;;;5055957;28;20037;-87
2023/05/07 04:11:56;;;;;;;46.67;30.85;;;11.40;99.90;;;;;;5017746;28;20047;-87
2023/05/07 04:14:22;;;;;;;44.55;29.95;;;11.40;99.90;;;;;;5027152;28;20047;-88
2023/05/07 04:16:48;;;;;;;47.40;29.67;;;11.40;99.90;;;;;;5040772;28;20041;-88
2023/05/07 04:19:13;;;;;;;47.17;30.55;;;11.40;99.90;;;;;;5016930;28;20392;-88
2023/05/07 04:21:39;;;;;;;45.08;30.35;;;11.40;99.90;;;;;;5036539;28;20041;-88
2023/05/07 04:24:06;;;;;;;42.38;29.33;;;11.30;99.90;;;;;;5052616;28;20037;-87
2023/05/07 04:26:32;;;;;;;48.33;30.45;;;11.40;99.90;;;;;;5024745;28;20361;-88
2023/05/07 04:28:59;;;;;;;44.20;29.83;;;11.30;99.90;;;;;;5025032;28;20170;-87
2023/05/07 04:31:24;;;;;;;44.80;30.42;;;11.40;99.90;;;;;;5029096;28;20215;-88
2023/05/07 04:33:51;;;;;;;41.67;29.58;;;11.30;99.90;;;;;;5036719;28;20183;-88
2023/05/07 04:36:17;;;;;;;45.72;29.70;;;11.40;99.90;;;;;;5024201;28;20037;-86
2023/05/07 04:38:43;;;;;;;40.85;28.35;;;11.30;99.90;;;;;;5024942;28;20049;-88
2023/05/07 04:41:09;;;;;;;42.15;29.23;;;11.30;99.90;;;;;;5042407;28;20048;-88
2023/05/07 04:43:35;;;;;;;41.83;29.15;;;11.30;99.90;;;;;;5074863;28;20053;-88
2023/05/07 04:46:00;;;;;;;43.53;28.40;;;11.30;99.90;;;;;;5021959;28;20472;-86
2023/05/07 04:48:27;;;;;;;40.75;28.23;;;11.30;99.90;;;;;;5019614;28;20523;-88
2023/05/07 04:50:52;;;;;;;38.28;28.27;;;11.30;99.90;;;;;;5038259;28;20404;-87
2023/05/07 04:53:19;;;;;;;40.47;27.70;;;11.30;99.90;;;;;;5036125;28;20051;-86
2023/05/07 04:55:45;;;;;;;40.47;27.45;;;11.30;99.90;;;;;;5040609;28;20048;-87
2023/05/07 04:58:12;;;;;;;41.22;29.13;;;11.30;99.90;;;;;;5042981;28;20087;-86
2023/05/07 05:00:39;;;;;;;40.17;28.33;;;11.30;99.90;;;;;;5025897;28;20408;-87
2023/05/07 05:03:06;;;;;;;42.05;28.65;;;11.30;99.90;;;;;;5030002;28;20037;-87
2023/05/07 05:05:32;;;;;;;38.83;28.13;;;11.20;99.90;;;;;;5023659;28;20063;-86
2023/05/07 05:07:58;;;;;;;41.53;27.92;;;11.30;99.90;;;;;;5024154;28;20068;-86
2023/05/07 05:10:23;;;;;;;41.95;28.15;;;11.30;99.90;;;;;;5023331;28;20365;-86
2023/05/07 05:12:51;;;;;;;38.28;26.80;;;11.30;99.90;;;;;;5017096;28;20126;-87
2023/05/07 05:15:20;;;;;;;37.22;26.15;;;11.30;99.90;;;;;;5025693;28;20318;-87
2023/05/07 05:17:46;;;;;;;37.33;26.92;;;11.40;99.90;;;;;;5015563;28;20469;-87
2023/05/07 05:20:12;;;;;;;40.40;27.05;;;11.40;99.90;;;;;;5035109;28;20059;-87
2023/05/07 05:22:38;;;;;;;37.47;26.85;;;11.30;99.90;;;;;;5029027;28;20075;-87
2023/05/07 05:25:04;;;;;;;39.42;27.88;;;11.40;99.90;;;;;;5027701;28;20048;-87
2023/05/07 05:27:29;;;;;;;36.40;25.88;;;11.40;99.90;;;;;;5022751;28;20143;-87
2023/05/07 05:29:55;;;;;;;33.75;25.67;;;11.50;99.90;;;;;;5028721;28;20163;-87
2023/05/07 05:32:21;;;;;;;36.28;25.83;;;11.50;99.90;;;;;;5026682;28;20295;-87
2023/05/07 05:34:47;;;;;;;36.15;25.98;;;11.40;99.90;;;;;;5029029;28;20040;-87
2023/05/07 05:37:13;;;;;;;34.25;25.02;;;11.40;99.90;;;;;;5028446;28;20036;-87
2023/05/07 05:39:38;;;;;;;32.03;24.45;;;11.50;99.90;;;;;;5061914;28;20052;-86
2023/05/07 05:42:04;;;;;;;33.97;24.02;;;11.50;99.90;;;;;;5043270;28;20051;-86
2023/05/07 05:44:30;;;;;;;32.70;25.30;;;11.50;99.90;;;;;;5031971;28;20135;-87
2023/05/07 05:46:57;;;;;;;35.33;24.80;;;11.50;99.90;;;;;;5032826;28;20359;-87
2023/05/07 05:49:23;;;;;;;33.92;25.00;;;11.50;99.90;;;;;;5058515;28;20498;-87
2023/05/07 05:51:51;;;;;;;30.73;23.70;;;11.50;99.90;;;;;;5030721;28;20052;-87
2023/05/07 05:54:17;;;;;;;33.00;25.38;;;11.50;99.90;;;;;;5029056;28;20123;-87
2023/05/07 05:56:43;;;;;;;38.65;25.55;;;11.50;99.90;;;;;;5024071;28;20448;-87
2023/05/07 05:59:09;;;;;;;32.38;24.10;;;11.60;99.90;;;;;;5031185;28;20036;-87
2023/05/07 06:01:35;;;;;;;33.08;24.77;;;11.60;99.90;;;;;;5032679;28;20037;-88
2023/05/07 06:04:01;;;;;;;32.70;24.38;;;11.60;99.90;;;;;;5028513;28;20036;-86
2023/05/07 06:06:27;;;;;;;33.28;24.30;;;11.60;99.90;;;;;;5032236;28;20123;-87
2023/05/07 06:08:55;;;;;;;31.55;23.42;;;11.70;99.90;;;;;;5027969;28;20074;-87
2023/05/07 06:11:21;;;;;;;30.58;23.98;;;11.70;99.90;;;;;;5031565;28;20534;-87
2023/05/07 06:13:47;;;;;;;29.60;23.80;;;11.70;99.90;;;;;;5034133;28;20039;-87
2023/05/07 06:16:13;;;;;;;33.55;25.27;;;11.80;99.90;;;;;;5047671;28;20041;-88
2023/05/07 06:18:39;;;;;;;32.40;24.33;;;11.70;99.90;;;;;;5024764;28;20048;-87
2023/05/07 06:21:05;;;;;;;34.00;24.58;;;11.80;99.90;;;;;;5027186;28;20071;-86
2023/05/07 06:23:30;;;;;;;33.22;23.23;;;11.90;99.90;;;;;;5031055;28;20041;-87
2023/05/07 06:25:56;;;;;;;30.73;23.58;;;11.80;99.90;;;;;;5049456;28;20416;-88
2023/05/07 06:28:30;;;;;;;29.25;23.52;;;11.80;99.90;;;;;;5027849;28;20139;-87
2023/05/07 06:31:10;;;;;;;31.77;23.65;;;11.80;99.90;;;;;;5047488;28;20491;-88
2023/05/07 06:33:35;;;;;;;31.92;24.25;;;11.90;99.90;;;;;;5028370;28;20098;-87
2023/05/07 06:36:01;;;;;;;29.92;22.98;;;11.90;99.90;;;;;;5029435;28;20079;-87
2023/05/07 06:38:27;;;;;;;33.55;24.67;;;12.00;99.90;;;;;;5029970;28;20053;-87
2023/05/07 06:40:55;;;;;;;29.45;22.77;;;12.10;99.90;;;;;;5030672;28;20040;-87
2023/05/07 06:43:20;;;;;;;28.23;22.13;;;12.00;99.90;;;;;;5026417;28;20036;-86
2023/05/07 06:45:46;;;;;;;31.15;22.75;;;12.00;99.90;;;;;;5025648;28;20423;-88
2023/05/07 06:48:11;;;;;;;29.20;22.77;;;12.00;99.90;;;;;;5028254;28;20124;-87
2023/05/07 06:50:37;;;;;;;29.02;23.02;;;12.00;99.90;;;;;;5024090;28;20041;-87
2023/05/07 06:53:06;;;;;;;28.20;22.15;;;12.10;99.90;;;;;;5024701;28;20036;-88
2023/05/07 06:55:34;;;;;;;28.52;22.63;;;12.00;99.90;;;;;;5027480;28;20040;-88
2023/05/07 06:58:02;;;;;;;28.75;22.55;;;12.10;99.90;;;;;;5026912;28;20111;-87
2023/05/07 07:00:28;;;;;;;27.13;22.52;;;11.90;99.90;;;;;;5023975;28;20040;-88
2023/05/07 07:02:54;;;;;;;30.30;22.80;;;12.00;99.90;;;;;;5029748;28;20029;-88
2023/05/07 07:05:20;;;;;;;29.33;23.17;;;12.20;99.90;;;;;;5028679;28;21007;-87
2023/05/07 07:07:52;;;;;;;29.52;22.95;;;12.10;99.90;;;;;;5024270;28;20051;-86
2023/05/07 07:10:19;;;;;;;29.48;23.10;;;12.10;99.90;;;;;;5039804;28;20072;-86
2023/05/07 07:12:45;;;;;;;29.55;22.85;;;12.10;99.90;;;;;;5058678;28;20041;-88
2023/05/07 07:15:11;;;;;;;27.48;21.35;;;12.20;99.90;;;;;;5028935;28;20435;-87
2023/05/07 07:17:37;;;;;;;27.50;21.75;;;12.20;99.90;;;;;;5025570;28;20075;-87
2023/05/07 07:20:03;;;;;;;29.70;22.35;;;12.30;99.90;;;;;;5056119;28;20128;-87
2023/05/07 07:22:29;;;;;;;28.17;21.08;;;12.20;99.90;;;;;;5020660;28;20043;-87
2023/05/07 07:24:55;;;;;;;31.75;22.90;;;12.40;99.90;;;;;;5027580;28;20037;-88
2023/05/07 07:27:20;;;;;;;32.72;23.08;;;12.60;99.90;;;;;;5024898;28;20229;-88
2023/05/07 07:29:46;;;;;;;30.17;23.35;;;12.80;99.90;;;;;;5025794;28;20067;-88
2023/05/07 07:32:11;;;;;;;29.33;22.05;;;12.60;99.90;;;;;;5026916;28;20048;-89
2023/05/07 07:34:37;;;;;;;28.45;21.40;;;12.80;99.90;;;;;;5026010;28;20049;-88
2023/05/07 07:37:05;;;;;;;28.35;21.90;;;12.70;99.90;;;;;;5021782;28;20464;-87
2023/05/07 07:39:34;;;;;;;29.05;22.52;;;12.70;99.90;;;;;;5060260;28;20066;-88
2023/05/07 07:42:00;;;;;;;30.27;22.67;;;12.60;99.90;;;;;;5027338;28;20033;-87
2023/05/07 07:44:28;;;;;;;28.55;22.33;;;12.70;99.90;;;;;;5023064;28;20033;-87
2023/05/07 07:46:53;;;;;;;30.95;22.75;;;12.90;99.90;;;;;;5036747;28;20029;-88
2023/05/07 07:49:19;;;;;;;28.02;21.73;;;12.90;99.90;;;;;;5017239;28;20045;-88
2023/05/07 07:51:45;;;;;;;31.67;22.10;;;13.20;99.90;;;;;;5041833;28;20135;-88
2023/05/07 07:54:11;;;;;;;29.95;22.05;;;13.30;99.90;;;;;;5018166;28;20037;-88
2023/05/07 07:56:38;;;;;;;29.95;22.75;;;13.30;99.90;;;;;;5024620;28;20119;-88
2023/05/07 07:59:03;;;;;;;27.75;21.80;;;13.60;99.90;;;;;;5028114;28;20048;-88
2023/05/07 08:01:30;;;;;;;29.58;22.30;;;13.60;99.90;;;;;;5020384;28;20033;-88
2023/05/07 08:03:58;;;;;;;33.38;23.48;;;14.00;99.90;;;;;;5026848;28;20052;-88
2023/05/07 08:06:25;;;;;;;30.00;21.88;;;13.70;99.90;;;;;;5037756;28;20516;-87
2023/05/07 08:08:51;;;;;;;28.33;21.27;;;13.70;99.90;;;;;;5028228;28;20130;-88
2023/05/07 08:11:21;;;;;;;28.98;21.50;;;14.10;99.90;;;;;;5029752;28;20642;-88
2023/05/07 08:13:47;;;;;;;27.67;21.73;;;14.30;99.90;;;;;;5053194;28;20287;-88
2023/05/07 08:16:13;;;;;;;29.13;21.65;;;14.50;99.90;;;;;;5024755;28;20045;-88
2023/05/07 08:18:39;;;;;;;26.80;21.33;;;14.50;99.90;;;;;;5024092;28;20114;-88
2023/05/07 08:21:04;;;;;;;26.42;20.55;;;14.60;99.90;;;;;;5038621;28;20075;-88
2023/05/07 08:23:30;;;;;;;26.25;20.33;;;14.90;99.90;;;;;;5025346;28;20047;-88
2023/05/07 08:25:56;;;;;;;27.52;21.10;;;15.00;99.90;;;;;;5027676;28;20451;-88
2023/05/07 08:28:21;;;;;;;29.08;21.70;;;14.90;99.90;;;;;;5026360;28;20037;-89
2023/05/07 08:30:47;;;;;;;26.60;20.17;;;14.60;99.90;;;;;;5043308;28;20606;-89
2023/05/07 08:33:13;;;;;;;27.92;20.88;;;14.80;99.90;;;;;;5022385;28;20144;-88
2023/05/07 08:35:38;;;;;;;27.48;20.70;;;14.90;99.90;;;;;;5024101;28;20734;-89
2023/05/07 08:38:04;;;;;;;25.40;20.80;;;14.90;99.90;;;;;;5045516;28;20061;-88
2023/05/07 08:40:37;;;;;;;25.20;20.25;;;15.10;99.90;;;;;;5027514;28;20033;-90
2023/05/07 08:43:07;;;;;;;24.30;18.67;;;15.10;99.90;;;;;;5036778;28;20051;-88
2023/05/07 08:45:34;;;;;;;27.08;20.42;;;15.40;99.90;;;;;;5025383;28;20034;-89
2023/05/07 08:48:04;;;;;;;27.27;20.77;;;15.70;99.90;;;;;;5038836;28;20059;-88
2023/05/07 08:50:30;;;;;;;24.40;19.92;;;15.60;99.90;;;;;;5040468;28;20181;-89
2023/05/07 08:52:56;;;;;;;26.42;20.80;;;15.60;99.90;;;;;;5029265;28;20514;-89
2023/05/07 08:55:23;;;;;;;26.42;20.35;;;15.50;99.90;;;;;;5030817;28;20479;-89
2023/05/07 08:57:49;;;;;;;24.42;20.23;;;15.70;99.90;;;;;;5029182;28;20143;-90
2023/05/07 09:00:15;;;;;;;23.77;19.17;;;15.80;99.90;;;;;;5043827;28;20041;-89
2023/05/07 09:02:41;;;;;;;26.88;19.77;;;16.20;99.90;;;;;;5031446;28;20071;-89
2023/05/07 09:05:07;;;;;;;23.83;19.02;;;16.20;99.90;;;;;;5046270;28;20479;-88
2023/05/07 09:07:33;;;;;;;23.50;19.65;;;16.40;99.90;;;;;;5044625;28;20043;-88
2023/05/07 09:10:02;;;;;;;24.30;19.38;;;16.60;99.90;;;;;;5032416;28;20040;-90
2023/05/07 09:12:28;;;;;;;23.25;19.13;;;16.40;99.90;;;;;;5035067;28;20040;-88
2023/05/07 09:14:53;;;;;;;22.77;18.25;;;16.50;99.90;;;;;;5032272;28;20044;-89
2023/05/07 09:17:19;;;;;;;24.42;19.05;;;16.80;99.90;;;;;;5031858;28;20473;-90
2023/05/07 09:19:45;;;;;;;21.35;17.55;;;16.70;99.90;;;;;;5022532;28;20127;-88
2023/05/07 09:22:12;;;;;;;20.92;18.02;;;16.90;99.90;;;;;;5059485;28;20032;-89
2023/05/07 09:24:38;;;;;;;23.83;17.83;;;17.00;99.90;;;;;;5026727;28;20037;-88
2023/05/07 09:27:06;;;;;;;21.77;17.85;;;16.90;99.90;;;;;;5031321;28;20036;-88
2023/05/07 09:29:35;;;;;;;22.10;17.60;;;16.70;99.90;;;;;;5031081;28;20326;-89
2023/05/07 09:32:05;;;;;;;22.17;18.38;;;16.90;99.90;;;;;;5044197;28;20056;-88
2023/05/07 09:34:36;;;;;;;21.40;17.75;;;17.30;99.90;;;;;;5039729;28;20045;-89
2023/05/07 09:37:02;;;;;;;20.15;17.00;;;17.90;99.90;;;;;;5036760;28;20053;-90
2023/05/07 09:39:48;;;;;;;19.92;17.10;;;17.50;99.90;;;;;;5020979;28;20411;-89
2023/05/07 09:42:17;;;;;;;23.13;18.45;;;17.50;99.90;;;;;;5026515;28;20042;-89
2023/05/07 09:44:47;;;;;;;23.20;17.80;;;17.40;99.90;;;;;;5023650;28;20048;-90
2023/05/07 09:47:18;;;;;;;20.02;17.02;;;17.30;99.90;;;;;;5021828;28;20048;-89
2023/05/07 09:49:47;;;;;;;23.60;17.30;;;17.80;99.90;;;;;;5023897;28;20063;-89
2023/05/07 09:52:13;;;;;;;18.92;16.55;;;17.70;99.90;;;;;;5053612;28;20037;-89
2023/05/07 09:54:43;;;;;;;22.48;18.20;;;17.70;99.90;;;;;;5041239;28;20106;-89
2023/05/07 09:57:12;;;;;;;21.13;17.63;;;17.70;99.90;;;;;;5027306;28;20116;-88
2023/05/07 09:59:38;;;;;;;20.83;17.88;;;18.20;99.90;;;;;;5031191;28;20048;-89
2023/05/07 10:02:05;;;;;;;21.48;17.23;;;18.60;99.90;;;;;;5039999;28;20041;-89
2023/05/07 10:04:31;;;;;;;20.38;17.65;;;17.90;99.90;;;;;;5038908;28;20041;-90
2023/05/07 10:07:03;;;;;;;18.55;16.25;;;18.20;99.90;;;;;;5027054;28;20052;-89
2023/05/07 10:09:30;;;;;;;21.17;17.50;;;17.80;99.90;;;;;;5024690;28;20412;-88
2023/05/07 10:11:57;;;;;;;18.73;16.33;;;17.90;99.90;;;;;;5025143;28;20512;-89
2023/05/07 10:14:30;;;;;;;20.67;17.35;;;17.60;99.90;;;;;;5042667;28;20423;-89
2023/05/07 10:16:57;;;;;;;21.45;16.55;;;18.10;99.90;;;;;;5008836;28;20544;-90
2023/05/07 10:19:23;;;;;;;20.90;17.50;;;18.20;99.90;;;;;;5027215;28;20167;-89
2023/05/07 10:22:04;;;;;;;20.30;16.77;;;18.50;99.90;;;;;;5026628;28;20400;-89
2023/05/07 10:24:33;;;;;;;20.27;17.02;;;18.00;99.90;;;;;;5050566;28;20033;-89
2023/05/07 10:27:18;;;;;;;20.40;16.48;;;18.10;99.90;;;;;;5026389;28;20408;-90
2023/05/07 10:30:18;;;;;;;18.52;16.45;;;18.00;99.90;;;;;;5035628;28;20051;-89
2023/05/07 10:32:50;;;;;;;19.42;16.13;;;18.10;99.90;;;;;;5039251;28;20037;-89
2023/05/07 10:35:24;;;;;;;18.95;15.93;;;18.30;99.90;;;;;;5054666;28;20045;-90
2023/05/07 10:37:50;;;;;;;19.17;16.33;;;18.30;99.90;;;;;;5019232;28;20079;-90
2023/05/07 10:40:17;;;;;;;17.35;15.52;;;18.60;99.90;;;;;;5021680;28;20053;-90
2023/05/07 10:42:55;;;;;;;17.98;15.93;;;18.30;99.90;;;;;;5028193;28;20037;-91
2023/05/07 10:45:22;;;;;;;19.17;15.63;;;18.90;99.90;;;;;;5045788;28;20037;-89
2023/05/07 10:48:08;;;;;;;17.42;15.52;;;19.20;99.90;;;;;;5027217;28;20044;-89
2023/05/07 10:50:34;;;;;;;17.80;15.50;;;19.00;99.90;;;;;;5052995;28;20034;-90
2023/05/07 10:53:20;;;;;;;19.63;15.85;;;19.20;99.90;;;;;;5024372;28;20040;-90
2023/05/07 10:56:18;;;;;;;18.02;15.80;;;18.80;99.90;;;;;;5025005;28;20048;-89
2023/05/07 10:58:44;;;;;;;17.35;15.45;;;18.90;99.90;;;;;;5037565;28;20107;-89
2023/05/07 11:01:12;;;;;;;16.08;14.38;;;19.10;99.90;;;;;;5024497;28;20048;-89
2023/05/07 11:04:14;;;;;;;18.38;16.35;;;19.40;99.90;;;;;;5037386;28;20045;-91
2023/05/07 11:06:40;;;;;;;19.98;15.18;;;19.00;99.90;;;;;;5039760;28;20041;-91
2023/05/07 11:09:06;;;;;;;16.52;14.82;;;19.30;99.90;;;;;;5021621;28;20041;-90
2023/05/07 11:11:51;;;;;;;17.67;15.30;;;19.60;99.90;;;;;;5023359;28;20056;-89
2023/05/07 11:14:51;;;;;;;17.25;15.43;;;19.60;99.90;;;;;;5037568;28;20344;-91
2023/05/07 11:17:17;;;;;;;15.93;14.25;;;19.60;99.90;;;;;;5037133;28;20048;-91
2023/05/07 11:19:54;;;;;;;17.15;15.27;;;20.10;99.90;;;;;;5022006;28;20029;-89
2023/05/07 11:22:32;;;;;;;16.85;14.95;;;19.70;99.90;;;;;;5023535;28;20174;-90
2023/05/07 11:25:06;;;;;;;16.20;14.48;;;19.00;99.90;;;;;;5027580;28;20132;-90
2023/05/07 11:27:32;;;;;;;16.63;14.88;;;19.70;99.90;;;;;;5026039;28;20542;-90
2023/05/07 11:30:00;;;;;;;16.02;14.32;;;20.20;99.90;;;;;;5019175;28;20128;-90
2023/05/07 11:32:31;;;;;;;17.33;15.52;;;19.80;99.90;;;;;;5055915;28;20121;-89
2023/05/07 11:34:58;;;;;;;17.23;14.40;;;20.20;99.90;;;;;;5033288;28;20591;-90
2023/05/07 11:37:26;;;;;;;16.13;14.40;;;20.00;99.90;;;;;;5026405;28;20228;-90
2023/05/07 11:40:03;;;;;;;16.30;13.98;;;19.90;99.90;;;;;;5027508;28;20127;-90
2023/05/07 11:42:38;;;;;;;16.90;14.82;;;20.00;99.90;;;;;;5042077;28;20139;-89
2023/05/07 11:45:08;;;;;;;18.02;15.55;;;19.80;99.90;;;;;;5027113;28;20036;-90
2023/05/07 11:47:34;;;;;;;16.65;14.95;;;19.70;99.90;;;;;;5031825;28;20036;-90
2023/05/07 11:50:07;;;;;;;16.33;14.57;;;19.70;99.90;;;;;;5027263;28;20084;-90
2023/05/07 11:52:34;;;;;;;15.85;14.23;;;20.30;99.90;;;;;;5042369;28;20047;-90
2023/05/07 11:55:01;;;;;;;16.35;14.65;;;20.40;99.90;;;;;;5027508;28;20040;-90
2023/05/07 11:57:28;;;;;;;16.50;14.73;;;20.10;99.90;;;;;;5037776;28;20036;-89
2023/05/07 11:59:58;;;;;;;16.00;14.40;;;20.20;99.90;;;;;;5057753;28;20103;-89
2023/05/07 12:02:25;;;;;;;17.73;14.75;;;20.10;99.90;;;;;;5030514;28;20040;-90
2023/05/07 12:04:51;;;;;;;17.08;15.23;;;19.90;99.90;;;;;;5024454;28;20040;-90
2023/05/07 12:07:18;;;;;;;15.85;14.13;;;19.80;99.90;;;;;;5040975;28;20475;-90
2023/05/07 12:09:45;;;;;;;16.23;14.52;;;19.80;99.90;;;;;;5028130;28;20439;-90
2023/05/07 12:12:11;;;;;;;16.30;14.20;;;20.30;99.90;;;;;;5027638;28;20036;-89
2023/05/07 12:14:40;;;;;;;16.50;13.93;;;20.70;99.90;;;;;;5060485;28;20393;-89
2023/05/07 12:17:10;;;;;;;16.90;14.27;;;21.30;99.90;;;;;;5025184;28;20572;-90
2023/05/07 12:19:37;;;;;;;14.95;13.48;;;21.30;99.90;;;;;;5024965;28;20045;-90
2023/05/07 12:22:04;;;;;;;16.15;14.52;;;21.30;99.90;;;;;;5041139;28;20387;-91
2023/05/07 12:24:42;;;;;;;17.38;13.80;;;21.60;99.90;;;;;;5026368;28;20040;-89
2023/05/07 12:27:09;;;;;;;15.88;14.25;;;21.70;99.90;;;;;;5042515;28;20440;-89
2023/05/07 12:29:35;;;;;;;16.60;13.55;;;21.80;99.90;;;;;;5040337;28;20044;-90
2023/05/07 12:32:00;;;;;;;14.98;13.40;;;22.40;99.90;;;;;;5027779;28;20121;-89